Time;durP1;ratioP1;P1;durP2;ratioP2;P2;SDS_P1;SDS_P2;PMS_P1;PMS_P2;Temp;Humidity;BMP_temperature;BMP_pressure;BME280_temperature;BME280_humidity;BME280_pressure;Samples;Min_cycle;Max_cycle;Signal;HPM_P1;HPM_P2
2021/04/11 00:00:48;;;;;;;10.60;5.80;;;;;;;;;;5093630;28;20399;-73
2021/04/11 00:03:18;;;;;;;12.70;5.68;;;;;;;;;;5091654;28;20417;-73
2021/04/11 00:05:45;;;;;;;7.43;5.53;;;;;;;;;;5104578;28;20218;-72
2021/04/11 00:08:12;;;;;;;9.60;6.05;;;;;;;;;;5106615;28;20239;-72
2021/04/11 00:10:42;;;;;;;8.77;6.30;;;;;;;;;;5104831;28;20214;-74
2021/04/11 00:13:10;;;;;;;13.80;7.05;;;;;;;;;;5105328;28;20184;-72
2021/04/11 00:15:36;;;;;;;12.80;7.10;;;;;;;;;;5091644;28;20207;-72
2021/04/11 00:18:02;;;;;;;13.60;7.60;;;;;;;;;;5091138;28;20182;-73
2021/04/11 00:20:28;;;;;;;10.65;6.82;;;;;;;;;;5091368;28;20429;-71
2021/04/11 00:22:54;;;;;;;15.68;7.97;;;;;;;;;;5098378;28;20297;-71
2021/04/11 00:25:23;;;;;;;15.00;9.00;;;;;;;;;;5112257;28;20262;-72
2021/04/11 00:27:49;;;;;;;18.92;10.00;;;;;;;;;;5099857;28;20187;-73
2021/04/11 00:30:16;;;;;;;17.13;9.93;;;;;;;;;;5091699;28;20191;-72
2021/04/11 00:32:42;;;;;;;18.00;10.07;;;;;;;;;;5091841;28;20957;-73
2021/04/11 00:35:09;;;;;;;15.52;9.60;;;;;;;;;;5105585;28;20206;-73
2021/04/11 00:37:34;;;;;;;20.30;11.20;;;;;;;;;;5107411;28;20232;-72
2021/04/11 00:40:01;;;;;;;20.53;12.10;;;;;;;;;;5091459;28;20258;-72
2021/04/11 00:42:41;;;;;;;19.77;12.38;;;;;;;;;;5098607;28;20416;-73
2021/04/11 00:45:07;;;;;;;19.13;13.18;;;;;;;;;;5109907;28;20190;-72
2021/04/11 00:47:33;;;;;;;19.95;13.00;;;;;;;;;;5102597;28;20561;-72
2021/04/11 00:50:04;;;;;;;20.75;13.95;;;;;;;;;;5091044;28;20945;-72
2021/04/11 00:52:30;;;;;;;23.38;13.60;;;;;;;;;;5089308;28;20194;-72
2021/04/11 00:54:56;;;;;;;23.60;13.85;;;;;;;;;;5090604;28;20256;-73
2021/04/11 00:57:22;;;;;;;24.53;13.80;;;;;;;;;;5089294;28;20203;-73
2021/04/11 00:59:48;;;;;;;21.42;14.30;;;;;;;;;;5090923;28;20413;-73
2021/04/11 01:02:14;;;;;;;21.10;14.40;;;;;;;;;;5090915;28;20167;-73
2021/04/11 01:04:40;;;;;;;23.90;15.60;;;;;;;;;;5093357;28;20507;-72
2021/04/11 01:07:09;;;;;;;21.33;14.73;;;;;;;;;;5104718;28;20794;-72
2021/04/11 01:09:37;;;;;;;22.80;15.70;;;;;;;;;;5098876;28;20981;-72
2021/04/11 01:12:04;;;;;;;25.90;15.60;;;;;;;;;;5105784;28;20232;-73
2021/04/11 01:14:32;;;;;;;27.05;15.82;;;;;;;;;;5104419;28;20256;-72
2021/04/11 01:16:58;;;;;;;25.33;16.58;;;;;;;;;;5103654;28;20200;-73
2021/04/11 01:19:26;;;;;;;24.02;15.50;;;;;;;;;;5094373;28;20168;-72
2021/04/11 01:22:10;;;;;;;24.90;17.13;;;;;;;;;;5094679;28;20190;-72
2021/04/11 01:24:36;;;;;;;28.95;18.73;;;;;;;;;;5089447;28;20183;-72
2021/04/11 01:27:03;;;;;;;31.17;18.00;;;;;;;;;;5112553;28;20195;-72
2021/04/11 01:29:29;;;;;;;32.00;18.98;;;;;;;;;;5102209;28;20200;-71
2021/04/11 01:31:55;;;;;;;28.10;19.35;;;;;;;;;;5113113;28;20186;-73
2021/04/11 01:34:21;;;;;;;32.90;20.40;;;;;;;;;;5114137;28;20224;-73
2021/04/11 01:36:49;;;;;;;28.23;19.57;;;;;;;;;;5113495;28;20584;-72
2021/04/11 01:39:18;;;;;;;29.63;20.02;;;;;;;;;;5093500;28;20449;-73
2021/04/11 01:41:45;;;;;;;34.60;21.40;;;;;;;;;;5097706;28;20632;-73
2021/04/11 01:44:13;;;;;;;35.67;21.90;;;;;;;;;;5093541;28;20183;-72
2021/04/11 01:46:39;;;;;;;33.03;22.23;;;;;;;;;;5107256;28;20194;-72
2021/04/11 01:49:05;;;;;;;33.25;21.15;;;;;;;;;;5093629;28;20176;-73
2021/04/11 01:51:37;;;;;;;36.20;22.47;;;;;;;;;;5093778;28;20186;-72
2021/04/11 01:54:07;;;;;;;37.22;22.55;;;;;;;;;;5103193;28;20760;-72
2021/04/11 01:56:33;;;;;;;32.35;21.40;;;;;;;;;;5113912;28;20640;-73
2021/04/11 01:58:59;;;;;;;30.42;20.50;;;;;;;;;;5094046;28;20215;-72
2021/04/11 02:01:32;;;;;;;32.53;20.87;;;;;;;;;;5097534;28;20170;-73
2021/04/11 02:04:00;;;;;;;28.25;20.20;;;;;;;;;;5113607;28;20480;-71
2021/04/11 02:06:26;;;;;;;34.80;20.83;;;;;;;;;;5112851;28;20202;-72
2021/04/11 02:08:55;;;;;;;31.92;20.15;;;;;;;;;;5102114;28;20167;-73
2021/04/11 02:11:21;;;;;;;32.63;21.20;;;;;;;;;;5093073;28;20240;-73
2021/04/11 02:13:47;;;;;;;29.20;20.02;;;;;;;;;;5092550;28;20175;-73
2021/04/11 02:16:14;;;;;;;32.47;21.02;;;;;;;;;;5101905;28;20207;-73
2021/04/11 02:18:40;;;;;;;32.85;21.13;;;;;;;;;;5092690;28;20220;-72
2021/04/11 02:21:16;;;;;;;33.00;21.52;;;;;;;;;;5093365;28;20176;-71
2021/04/11 02:23:43;;;;;;;33.97;19.77;;;;;;;;;;5091683;28;20504;-72
2021/04/11 02:26:10;;;;;;;33.05;20.85;;;;;;;;;;5106906;28;20194;-72
2021/04/11 02:28:37;;;;;;;32.70;20.98;;;;;;;;;;5093059;28;20186;-72
2021/04/11 02:31:18;;;;;;;32.35;21.10;;;;;;;;;;5093302;28;20248;-73
2021/04/11 02:34:04;;;;;;;32.50;20.83;;;;;;;;;;5101813;28;20186;-74
2021/04/11 02:36:36;;;;;;;33.28;21.00;;;;;;;;;;5096691;28;20210;-72
2021/04/11 02:39:04;;;;;;;32.92;20.50;;;;;;;;;;5112183;28;20186;-71
2021/04/11 02:41:30;;;;;;;34.67;21.73;;;;;;;;;;5102128;28;20167;-74
2021/04/11 02:43:57;;;;;;;35.30;21.55;;;;;;;;;;5100013;28;20525;-73
2021/04/11 02:46:23;;;;;;;32.45;20.73;;;;;;;;;;5093755;28;20214;-73
2021/04/11 02:48:53;;;;;;;29.98;20.83;;;;;;;;;;5098671;28;20628;-73
2021/04/11 02:51:19;;;;;;;38.60;22.70;;;;;;;;;;5105683;28;20224;-74
2021/04/11 02:53:46;;;;;;;37.95;23.40;;;;;;;;;;5095345;28;20614;-74
2021/04/11 02:56:15;;;;;;;35.20;23.20;;;;;;;;;;5098696;28;20217;-73
2021/04/11 02:58:41;;;;;;;35.78;23.40;;;;;;;;;;5096618;28;20171;-75
2021/04/11 03:01:10;;;;;;;42.20;25.00;;;;;;;;;;5092504;28;20745;-73
2021/04/11 03:03:36;;;;;;;41.63;25.67;;;;;;;;;;5105911;28;20624;-73
2021/04/11 03:06:05;;;;;;;39.38;25.05;;;;;;;;;;5081265;28;20556;-72
2021/04/11 03:08:34;;;;;;;44.40;27.70;;;;;;;;;;5092882;28;20206;-74
2021/04/11 03:11:12;;;;;;;41.63;26.63;;;;;;;;;;5101914;28;20589;-74
2021/04/11 03:13:39;;;;;;;42.00;26.95;;;;;;;;;;5107304;28;20175;-73
2021/04/11 03:16:05;;;;;;;43.92;25.67;;;;;;;;;;5090826;28;20864;-73
2021/04/11 03:18:32;;;;;;;45.92;26.90;;;;;;;;;;5091841;28;20206;-75
2021/04/11 03:20:58;;;;;;;46.53;28.50;;;;;;;;;;5092454;28;20198;-73
2021/04/11 03:23:25;;;;;;;44.80;29.00;;;;;;;;;;5092554;28;20168;-74
2021/04/11 03:25:53;;;;;;;42.67;27.17;;;;;;;;;;5095150;28;20199;-74
2021/04/11 03:28:22;;;;;;;45.95;27.40;;;;;;;;;;5099895;28;20503;-73
2021/04/11 03:30:54;;;;;;;43.00;27.20;;;;;;;;;;5094115;28;20183;-73
2021/04/11 03:33:21;;;;;;;50.28;29.55;;;;;;;;;;5096117;28;20598;-74
2021/04/11 03:35:49;;;;;;;45.15;28.52;;;;;;;;;;5104393;28;20208;-73
2021/04/11 03:38:16;;;;;;;43.97;27.67;;;;;;;;;;5116742;28;20551;-73
2021/04/11 03:40:45;;;;;;;45.22;29.65;;;;;;;;;;5100725;28;20183;-73
2021/04/11 03:43:16;;;;;;;46.53;30.40;;;;;;;;;;5116665;28;20186;-72
2021/04/11 03:45:42;;;;;;;49.05;29.27;;;;;;;;;;5101675;28;20259;-73
2021/04/11 03:48:21;;;;;;;49.63;30.90;;;;;;;;;;5117127;28;20285;-74
2021/04/11 03:51:07;;;;;;;49.05;29.10;;;;;;;;;;5116523;28;20280;-72
2021/04/11 03:53:43;;;;;;;51.00;31.85;;;;;;;;;;5111165;28;20180;-74
2021/04/11 03:56:11;;;;;;;49.60;31.25;;;;;;;;;;5108406;28;20243;-73
2021/04/11 03:58:44;;;;;;;50.67;31.13;;;;;;;;;;5098831;28;20516;-75
2021/04/11 04:01:16;;;;;;;49.38;31.65;;;;;;;;;;5100891;28;20184;-72
2021/04/11 04:03:42;;;;;;;51.95;31.45;;;;;;;;;;5082344;28;20175;-73
2021/04/11 04:06:16;;;;;;;52.63;33.50;;;;;;;;;;5109619;28;20675;-74
2021/04/11 04:08:42;;;;;;;52.65;32.60;;;;;;;;;;5102782;28;20526;-74
2021/04/11 04:11:11;;;;;;;51.20;31.20;;;;;;;;;;5095867;28;20187;-73
2021/04/11 04:13:53;;;;;;;50.38;32.72;;;;;;;;;;5098484;28;20193;-75
2021/04/11 04:16:32;;;;;;;52.90;31.73;;;;;;;;;;5093660;28;20298;-73
2021/04/11 04:19:04;;;;;;;51.28;30.70;;;;;;;;;;5109090;28;20206;-73
2021/04/11 04:21:33;;;;;;;51.20;30.92;;;;;;;;;;5116003;28;20201;-72
2021/04/11 04:24:09;;;;;;;50.75;31.38;;;;;;;;;;5101928;28;20640;-73
2021/04/11 04:26:45;;;;;;;50.22;30.30;;;;;;;;;;5098667;28;20623;-73
2021/04/11 04:29:20;;;;;;;45.25;29.77;;;;;;;;;;5095263;28;20224;-74
2021/04/11 04:31:46;;;;;;;49.53;32.40;;;;;;;;;;5095205;28;20552;-73
2021/04/11 04:34:31;;;;;;;51.30;32.70;;;;;;;;;;5107246;28;20186;-74
2021/04/11 04:37:09;;;;;;;48.20;32.30;;;;;;;;;;5098325;28;20464;-73
2021/04/11 04:39:38;;;;;;;50.08;32.00;;;;;;;;;;5102373;27;20176;-73
2021/04/11 04:42:17;;;;;;;47.55;31.67;;;;;;;;;;5110304;28;20171;-72
2021/04/11 04:44:49;;;;;;;47.85;32.38;;;;;;;;;;5101398;28;20215;-74
2021/04/11 04:47:18;;;;;;;50.97;32.17;;;;;;;;;;5093044;28;20199;-74
2021/04/11 04:49:58;;;;;;;51.78;33.35;;;;;;;;;;5094952;28;20179;-73
2021/04/11 04:52:26;;;;;;;49.03;33.75;;;;;;;;;;5095085;28;20175;-73
2021/04/11 04:54:56;;;;;;;53.42;34.85;;;;;;;;;;5108159;28;20704;-74
2021/04/11 04:57:22;;;;;;;59.78;34.90;;;;;;;;;;5098320;28;20897;-75
2021/04/11 04:59:54;;;;;;;54.47;34.70;;;;;;;;;;5096943;28;20187;-73
2021/04/11 05:02:22;;;;;;;51.47;34.03;;;;;;;;;;5096652;28;20445;-73
2021/04/11 05:04:57;;;;;;;53.97;33.78;;;;;;;;;;5096297;28;20194;-74
2021/04/11 05:07:26;;;;;;;52.28;34.95;;;;;;;;;;5114906;28;20692;-74
2021/04/11 05:10:05;;;;;;;55.45;32.75;;;;;;;;;;5094968;27;20183;-72
2021/04/11 05:12:45;;;;;;;50.60;33.35;;;;;;;;;;5094850;28;20187;-74
2021/04/11 05:15:23;;;;;;;54.00;34.42;;;;;;;;;;5090161;28;20187;-74
2021/04/11 05:17:55;;;;;;;53.25;34.65;;;;;;;;;;5094463;28;20265;-73
2021/04/11 05:20:24;;;;;;;50.30;33.90;;;;;;;;;;5094306;28;20176;-71
2021/04/11 05:22:59;;;;;;;55.25;35.45;;;;;;;;;;5093679;28;20236;-73
2021/04/11 05:25:25;;;;;;;56.70;36.25;;;;;;;;;;5087011;28;20531;-72
2021/04/11 05:27:55;;;;;;;52.93;34.23;;;;;;;;;;5093990;28;20175;-72
2021/04/11 05:30:23;;;;;;;53.95;35.90;;;;;;;;;;5105097;28;20420;-73
2021/04/11 05:32:50;;;;;;;47.78;34.42;;;;;;;;;;5093641;28;20536;-72
2021/04/11 05:35:16;;;;;;;57.90;36.30;;;;;;;;;;5104416;28;20644;-72
2021/04/11 05:38:00;;;;;;;52.88;34.80;;;;;;;;;;5112050;28;20171;-73
2021/04/11 05:40:32;;;;;;;55.15;37.15;;;;;;;;;;5093844;28;20555;-73
2021/04/11 05:43:01;;;;;;;56.97;35.60;;;;;;;;;;5093468;28;20206;-75
2021/04/11 05:45:27;;;;;;;54.53;34.58;;;;;;;;;;5095992;28;20179;-72
2021/04/11 05:48:15;;;;;;;53.70;36.57;;;;;;;;;;5093818;28;20179;-75
2021/04/11 05:50:44;;;;;;;54.53;35.38;;;;;;;;;;5091957;28;20424;-74
2021/04/11 05:53:36;;;;;;;56.00;36.80;;;;;;;;;;5110274;28;20632;-73
2021/04/11 05:56:05;;;;;;;57.38;35.92;;;;;;;;;;5077709;28;20314;-74
2021/04/11 05:58:53;;;;;;;62.25;39.67;;;;;;;;;;5093387;28;20184;-73
2021/04/11 06:01:20;;;;;;;63.70;38.38;;;;;;;;;;5096071;28;20285;-73
2021/04/11 06:03:50;;;;;;;62.08;37.15;;;;;;;;;;5093412;28;20175;-76
2021/04/11 06:06:23;;;;;;;62.83;40.35;;;;;;;;;;5095415;28;20273;-74
2021/04/11 06:08:55;;;;;;;65.10;39.40;;;;;;;;;;5108124;28;20182;-73
2021/04/11 06:11:24;;;;;;;65.70;43.05;;;;;;;;;;5094166;28;20263;-74
2021/04/11 06:14:13;;;;;;;60.72;38.78;;;;;;;;;;5092744;28;20168;-73
2021/04/11 06:16:39;;;;;;;65.10;40.28;;;;;;;;;;5091733;28;20222;-74
2021/04/11 06:19:06;;;;;;;60.70;38.60;;;;;;;;;;5096842;28;20281;-73
2021/04/11 06:21:32;;;;;;;61.22;37.45;;;;;;;;;;5093374;28;20421;-73
2021/04/11 06:24:04;;;;;;;66.50;41.80;;;;;;;;;;5093505;28;20506;-73
2021/04/11 06:26:52;;;;;;;61.10;39.95;;;;;;;;;;5107345;28;20437;-73
2021/04/11 06:29:23;;;;;;;57.72;37.25;;;;;;;;;;5110973;28;20265;-74
2021/04/11 06:31:53;;;;;;;65.93;40.15;;;;;;;;;;5089385;28;20180;-74
2021/04/11 06:34:24;;;;;;;62.88;40.60;;;;;;;;;;5112548;28;20166;-73
2021/04/11 06:36:53;;;;;;;65.45;41.13;;;;;;;;;;5093158;28;20199;-75
2021/04/11 06:39:25;;;;;;;66.93;40.13;;;;;;;;;;5093412;28;20650;-73
2021/04/11 06:42:09;;;;;;;64.05;41.03;;;;;;;;;;5105083;28;20234;-75
2021/04/11 06:44:40;;;;;;;75.15;41.00;;;;;;;;;;5112979;28;20171;-74
2021/04/11 06:47:20;;;;;;;63.60;40.30;;;;;;;;;;5094083;28;20203;-73
2021/04/11 06:50:00;;;;;;;67.40;40.05;;;;;;;;;;5105921;28;20258;-74
2021/04/11 06:52:42;;;;;;;62.53;38.10;;;;;;;;;;5113629;28;20174;-74
2021/04/11 06:55:27;;;;;;;66.15;39.88;;;;;;;;;;5103978;28;20678;-74
2021/04/11 06:57:58;;;;;;;66.05;38.78;;;;;;;;;;5096315;28;20171;-74
2021/04/11 07:00:27;;;;;;;68.20;40.20;;;;;;;;;;5097821;28;20185;-75
2021/04/11 07:03:00;;;;;;;59.85;38.97;;;;;;;;;;5106713;28;20182;-74
2021/04/11 07:05:33;;;;;;;62.75;39.35;;;;;;;;;;5104302;28;20336;-75
2021/04/11 07:07:59;;;;;;;58.53;37.45;;;;;;;;;;5097041;28;20191;-73
2021/04/11 07:10:43;;;;;;;64.43;40.77;;;;;;;;;;5096533;28;20186;-72
2021/04/11 07:13:21;;;;;;;63.33;38.78;;;;;;;;;;5096355;28;20508;-74
2021/04/11 07:16:02;;;;;;;58.60;37.03;;;;;;;;;;5094909;28;20210;-73
2021/04/11 07:18:48;;;;;;;63.70;41.15;;;;;;;;;;5096620;28;20536;-71
2021/04/11 07:21:32;;;;;;;60.28;38.45;;;;;;;;;;5104273;28;20217;-75
2021/04/11 07:24:16;;;;;;;59.75;38.65;;;;;;;;;;5108774;28;20175;-73
2021/04/11 07:26:42;;;;;;;69.78;45.15;;;;;;;;;;5096749;28;20203;-75
2021/04/11 07:29:29;;;;;;;60.93;41.07;;;;;;;;;;5097820;28;20254;-75
2021/04/11 07:31:57;;;;;;;61.90;39.45;;;;;;;;;;5096594;28;20452;-75
2021/04/11 07:34:26;;;;;;;62.30;38.53;;;;;;;;;;5095796;28;20254;-72
2021/04/11 07:36:52;;;;;;;56.22;36.22;;;;;;;;;;5096417;28;20199;-75
2021/04/11 07:39:33;;;;;;;59.00;38.20;;;;;;;;;;5104840;28;20255;-76
2021/04/11 07:42:02;;;;;;;56.92;35.97;;;;;;;;;;5111051;28;20420;-73
2021/04/11 07:44:47;;;;;;;60.67;39.05;;;;;;;;;;5111751;28;20176;-73
2021/04/11 07:47:40;;;;;;;57.22;38.47;;;;;;;;;;5096332;28;20197;-74
2021/04/11 07:50:11;;;;;;;59.80;38.15;;;;;;;;;;5096138;28;20179;-71
2021/04/11 07:52:55;;;;;;;59.50;38.35;;;;;;;;;;5095868;28;20167;-72
2021/04/11 07:55:25;;;;;;;62.25;39.75;;;;;;;;;;5096080;28;20282;-74
2021/04/11 07:58:09;;;;;;;62.88;40.17;;;;;;;;;;5092771;28;20172;-74
2021/04/11 08:00:38;;;;;;;65.70;41.20;;;;;;;;;;5091620;28;20175;-73
2021/04/11 08:03:20;;;;;;;59.10;37.78;;;;;;;;;;5091211;28;20266;-74
2021/04/11 08:05:59;;;;;;;57.00;38.00;;;;;;;;;;5088131;28;20271;-74
2021/04/11 08:08:28;;;;;;;60.67;38.05;;;;;;;;;;5090275;28;20237;-74
2021/04/11 08:11:16;;;;;;;58.25;37.90;;;;;;;;;;5091968;28;20266;-74
2021/04/11 08:13:52;;;;;;;59.20;38.80;;;;;;;;;;5091333;28;20259;-73
2021/04/11 08:16:40;;;;;;;55.30;36.70;;;;;;;;;;5080030;28;20209;-73
2021/04/11 08:19:34;;;;;;;54.22;37.83;;;;;;;;;;5105817;28;20175;-73
2021/04/11 08:22:00;;;;;;;54.83;36.20;;;;;;;;;;5112290;27;20181;-73
2021/04/11 08:24:41;;;;;;;60.00;39.33;;;;;;;;;;5111705;28;20205;-73
2021/04/11 08:27:23;;;;;;;52.00;36.55;;;;;;;;;;5109372;28;20281;-74
2021/04/11 08:30:04;;;;;;;53.83;36.88;;;;;;;;;;5080198;28;20195;-75
2021/04/11 08:32:33;;;;;;;56.08;37.38;;;;;;;;;;5091568;28;20194;-76
2021/04/11 08:35:05;;;;;;;46.97;36.30;;;;;;;;;;5090884;28;20206;-73
2021/04/11 08:37:49;;;;;;;54.10;37.63;;;;;;;;;;5091458;28;20191;-74
2021/04/11 08:40:18;;;;;;;51.70;35.83;;;;;;;;;;5091517;28;20202;-74
2021/04/11 08:43:08;;;;;;;43.33;32.50;;;;;;;;;;5091123;28;20186;-74
2021/04/11 08:45:37;;;;;;;41.63;31.17;;;;;;;;;;5091270;28;20688;-74
2021/04/11 08:48:06;;;;;;;40.65;29.92;;;;;;;;;;5091352;28;20229;-74
2021/04/11 08:50:32;;;;;;;40.13;30.20;;;;;;;;;;5091126;28;20190;-74
2021/04/11 08:53:08;;;;;;;30.63;25.23;;;;;;;;;;5090706;28;20175;-72
2021/04/11 08:55:41;;;;;;;30.05;24.50;;;;;;;;;;5077832;28;20976;-73
2021/04/11 08:58:22;;;;;;;27.45;23.58;;;;;;;;;;5091101;28;20278;-73
2021/04/11 09:00:52;;;;;;;26.77;21.73;;;;;;;;;;5096462;28;20270;-73
2021/04/11 09:03:20;;;;;;;24.63;21.58;;;;;;;;;;5102625;28;20175;-73
2021/04/11 09:05:52;;;;;;;21.20;19.10;;;;;;;;;;5094162;28;20624;-75
2021/04/11 09:08:26;;;;;;;20.95;18.10;;;;;;;;;;5090838;28;20245;-73
2021/04/11 09:10:52;;;;;;;16.52;14.82;;;;;;;;;;5087316;28;20305;-74
2021/04/11 09:13:24;;;;;;;14.37;12.87;;;;;;;;;;5090213;28;20276;-75
2021/04/11 09:16:05;;;;;;;14.95;13.43;;;;;;;;;;5090292;28;20477;-74
2021/04/11 09:18:31;;;;;;;15.73;14.23;;;;;;;;;;5090469;28;20217;-72
2021/04/11 09:21:06;;;;;;;15.00;13.47;;;;;;;;;;5101181;28;20171;-72
2021/04/11 09:23:42;;;;;;;14.05;12.75;;;;;;;;;;5109104;28;20416;-74
2021/04/11 09:26:27;;;;;;;13.77;12.48;;;;;;;;;;5090764;28;20598;-74
2021/04/11 09:29:09;;;;;;;14.40;13.00;;;;;;;;;;5089835;28;20187;-73
2021/04/11 09:31:41;;;;;;;14.80;13.32;;;;;;;;;;5108394;28;20210;-74
2021/04/11 09:34:20;;;;;;;11.88;10.68;;;;;;;;;;5105381;27;20723;-74
2021/04/11 09:36:50;;;;;;;13.52;12.13;;;;;;;;;;5090246;28;20207;-75
2021/04/11 09:39:25;;;;;;;13.15;11.90;;;;;;;;;;5088720;28;20262;-74
2021/04/11 09:42:00;;;;;;;14.85;13.35;;;;;;;;;;5090482;28;20182;-73
2021/04/11 09:44:48;;;;;;;12.30;11.20;;;;;;;;;;5092515;28;20179;-75
2021/04/11 09:47:33;;;;;;;11.88;10.82;;;;;;;;;;5110552;28;20202;-74
2021/04/11 09:50:07;;;;;;;12.25;11.05;;;;;;;;;;5096167;28;20183;-75
2021/04/11 09:52:40;;;;;;;11.15;10.07;;;;;;;;;;5090121;28;20183;-73
2021/04/11 09:55:24;;;;;;;10.30;9.30;;;;;;;;;;5089357;28;20203;-73
2021/04/11 09:58:15;;;;;;;11.68;10.57;;;;;;;;;;5088216;28;20179;-74
2021/04/11 10:00:41;;;;;;;12.23;10.93;;;;;;;;;;5089810;28;20186;-74
2021/04/11 10:03:13;;;;;;;16.08;14.30;;;;;;;;;;5089356;28;20187;-74
2021/04/11 10:05:45;;;;;;;17.00;15.20;;;;;;;;;;5089771;28;20222;-74
2021/04/11 10:08:29;;;;;;;18.30;16.50;;;;;;;;;;5100597;28;20182;-74
2021/04/11 10:11:14;;;;;;;17.52;15.85;;;;;;;;;;5110151;28;20186;-73
2021/04/11 10:13:40;;;;;;;14.85;13.45;;;;;;;;;;5089323;28;20187;-74
2021/04/11 10:16:24;;;;;;;15.73;14.20;;;;;;;;;;5078009;28;20899;-75
2021/04/11 10:19:08;;;;;;;15.70;14.20;;;;;;;;;;5107415;28;20416;-73
2021/04/11 10:22:01;;;;;;;24.35;21.77;;;;;;;;;;5109869;28;20265;-74
2021/04/11 10:24:36;;;;;;;14.88;13.48;;;;;;;;;;5073220;28;20195;-73
2021/04/11 10:27:11;;;;;;;12.68;11.48;;;;;;;;;;5089088;28;20990;-74
2021/04/11 10:29:38;;;;;;;12.32;11.18;;;;;;;;;;5089773;28;20649;-73
2021/04/11 10:32:08;;;;;;;11.40;10.40;;;;;;;;;;5089305;28;20191;-73
2021/04/11 10:34:41;;;;;;;9.98;9.07;;;;;;;;;;5103387;28;20182;-74
2021/04/11 10:37:07;;;;;;;9.57;8.75;;;;;;;;;;5107158;28;20903;-74
2021/04/11 10:39:45;;;;;;;9.97;9.07;;;;;;;;;;5089053;28;20282;-74
2021/04/11 10:42:32;;;;;;;10.32;9.32;;;;;;;;;;5099056;28;20463;-74
2021/04/11 10:45:01;;;;;;;10.65;9.75;;;;;;;;;;5101518;28;20670;-74
2021/04/11 10:47:30;;;;;;;9.82;8.95;;;;;;;;;;5109655;28;20221;-73
2021/04/11 10:50:02;;;;;;;10.52;9.52;;;;;;;;;;5098778;28;20186;-73
2021/04/11 10:52:47;;;;;;;10.80;9.80;;;;;;;;;;5087714;28;20198;-74
2021/04/11 10:55:22;;;;;;;11.82;10.70;;;;;;;;;;5092400;28;20256;-73
2021/04/11 10:58:09;;;;;;;14.48;12.98;;;;;;;;;;5089217;28;20190;-75
2021/04/11 11:00:41;;;;;;;14.52;12.98;;;;;;;;;;5089715;28;20586;-74
2021/04/11 11:03:16;;;;;;;15.32;13.70;;;;;;;;;;5109105;28;20183;-74
2021/04/11 11:05:51;;;;;;;14.32;12.32;;;;;;;;;;5094065;28;20639;-73
2021/04/11 11:08:35;;;;;;;14.55;12.25;;;;;;;;;;5089430;28;20209;-74
2021/04/11 11:11:20;;;;;;;15.10;13.18;;;;;;;;;;5095912;28;20186;-74
2021/04/11 11:14:01;;;;;;;15.32;12.73;;;;;;;;;;5099393;28;20195;-74
2021/04/11 11:16:36;;;;;;;15.50;13.10;;;;;;;;;;5088531;28;20211;-74
2021/04/11 11:19:28;;;;;;;13.80;11.23;;;;;;;;;;5088970;28;20586;-73
2021/04/11 11:22:17;;;;;;;12.60;11.25;;;;;;;;;;5089177;28;20665;-74
2021/04/11 11:24:57;;;;;;;13.93;12.10;;;;;;;;;;5088624;28;20206;-74
2021/04/11 11:27:32;;;;;;;12.73;11.45;;;;;;;;;;5098692;28;20216;-74
2021/04/11 11:30:07;;;;;;;13.55;10.43;;;;;;;;;;5088976;28;20662;-72
2021/04/11 11:32:58;;;;;;;11.32;10.13;;;;;;;;;;5106193;28;20188;-74
2021/04/11 11:35:24;;;;;;;11.55;10.35;;;;;;;;;;5092246;28;20207;-74
2021/04/11 11:38:05;;;;;;;11.40;10.30;;;;;;;;;;5095656;28;20203;-74
2021/04/11 11:40:49;;;;;;;11.15;10.05;;;;;;;;;;5109308;28;20231;-72
2021/04/11 11:43:19;;;;;;;11.50;10.02;;;;;;;;;;5097324;28;20187;-74
2021/04/11 11:45:54;;;;;;;10.52;9.50;;;;;;;;;;5107714;28;20209;-74
2021/04/11 11:48:38;;;;;;;11.30;9.65;;;;;;;;;;5097355;28;20186;-76
2021/04/11 11:51:23;;;;;;;11.90;9.02;;;;;;;;;;5078269;28;20190;-75
2021/04/11 11:54:04;;;;;;;9.70;8.75;;;;;;;;;;5090280;28;20282;-74
2021/04/11 11:56:33;;;;;;;10.30;9.13;;;;;;;;;;5092023;28;20847;-73
2021/04/11 11:59:14;;;;;;;10.77;8.65;;;;;;;;;;5099606;28;20220;-73
2021/04/11 12:01:46;;;;;;;8.98;8.02;;;;;;;;;;5112634;28;20178;-74
2021/04/11 12:04:32;;;;;;;7.97;7.18;;;;;;;;;;5094712;28;20241;-75
2021/04/11 12:07:00;;;;;;;7.30;6.60;;;;;;;;;;5092161;28;20211;-74
2021/04/11 12:09:26;;;;;;;8.05;7.10;;;;;;;;;;5091886;28;20187;-73
2021/04/11 12:12:03;;;;;;;7.10;6.33;;;;;;;;;;5091972;28;20183;-74
2021/04/11 12:14:44;;;;;;;6.53;5.65;;;;;;;;;;5093986;28;20575;-74
2021/04/11 12:17:29;;;;;;;8.27;6.63;;;;;;;;;;5091582;28;20263;-74
2021/04/11 12:19:58;;;;;;;7.18;6.03;;;;;;;;;;5104196;28;20235;-75
2021/04/11 12:22:31;;;;;;;7.03;6.13;;;;;;;;;;5107253;28;20187;-74
2021/04/11 12:24:59;;;;;;;6.57;5.88;;;;;;;;;;5091194;28;20656;-73
2021/04/11 12:27:33;;;;;;;5.70;5.20;;;;;;;;;;5091661;28;20214;-74
2021/04/11 12:30:01;;;;;;;6.68;6.07;;;;;;;;;;5107012;28;20594;-75
2021/04/11 12:32:36;;;;;;;6.75;6.05;;;;;;;;;;5112053;28;20209;-74
2021/04/11 12:35:21;;;;;;;6.28;5.20;;;;;;;;;;5090652;28;20213;-73
2021/04/11 12:37:53;;;;;;;6.20;5.60;;;;;;;;;;5091173;28;20232;-75
2021/04/11 12:40:35;;;;;;;6.63;5.40;;;;;;;;;;5085334;28;20181;-74
2021/04/11 12:43:10;;;;;;;6.35;5.72;;;;;;;;;;5105794;28;20539;-73
2021/04/11 12:45:45;;;;;;;6.55;4.90;;;;;;;;;;5111752;28;20194;-72
2021/04/11 12:48:28;;;;;;;6.13;5.53;;;;;;;;;;5091983;28;20190;-74
2021/04/11 12:51:04;;;;;;;6.15;5.10;;;;;;;;;;5091133;28;20187;-73
2021/04/11 12:53:50;;;;;;;5.43;4.93;;;;;;;;;;5079619;28;20183;-73
2021/04/11 12:56:18;;;;;;;4.95;4.55;;;;;;;;;;5077552;28;20257;-74
2021/04/11 12:58:45;;;;;;;5.13;4.65;;;;;;;;;;5091004;28;20191;-73
2021/04/11 13:01:11;;;;;;;5.35;4.85;;;;;;;;;;5095993;28;20171;-73
2021/04/11 13:03:46;;;;;;;4.80;4.30;;;;;;;;;;5110244;28;20223;-74
2021/04/11 13:06:18;;;;;;;4.57;4.05;;;;;;;;;;5097481;28;20216;-75
2021/04/11 13:08:59;;;;;;;5.18;4.68;;;;;;;;;;5111066;28;20186;-74
2021/04/11 13:11:42;;;;;;;4.35;3.95;;;;;;;;;;5083429;28;20183;-74
2021/04/11 13:14:16;;;;;;;4.63;4.22;;;;;;;;;;5084892;28;20218;-74
2021/04/11 13:16:42;;;;;;;6.20;4.70;;;;;;;;;;5104486;28;20679;-75
2021/04/11 13:19:12;;;;;;;5.00;4.50;;;;;;;;;;5109575;28;20247;-73
2021/04/11 13:21:48;;;;;;;6.10;5.05;;;;;;;;;;5105204;28;20432;-74
2021/04/11 13:24:19;;;;;;;5.25;4.75;;;;;;;;;;5079014;28;20258;-73
2021/04/11 13:26:59;;;;;;;6.72;4.72;;;;;;;;;;5094245;28;20734;-75
2021/04/11 13:29:31;;;;;;;5.25;4.85;;;;;;;;;;5082146;28;20274;-74
2021/04/11 13:32:15;;;;;;;4.93;4.30;;;;;;;;;;5102640;28;20181;-76
2021/04/11 13:34:44;;;;;;;4.50;4.13;;;;;;;;;;5099625;28;20807;-74
2021/04/11 13:37:12;;;;;;;5.07;4.57;;;;;;;;;;5110816;28;20294;-75
2021/04/11 13:39:39;;;;;;;7.40;4.13;;;;;;;;;;5101277;28;20640;-75
2021/04/11 13:42:11;;;;;;;4.82;4.43;;;;;;;;;;5106878;28;20178;-75
2021/04/11 13:44:44;;;;;;;4.18;3.88;;;;;;;;;;5099065;27;20876;-73
2021/04/11 13:47:15;;;;;;;4.88;4.30;;;;;;;;;;5090337;28;20210;-74
2021/04/11 13:49:41;;;;;;;4.75;4.35;;;;;;;;;;5095291;28;20182;-74
2021/04/11 13:52:07;;;;;;;4.73;4.30;;;;;;;;;;5110635;28;20179;-74
2021/04/11 13:54:39;;;;;;;5.40;4.90;;;;;;;;;;5100750;28;20403;-75
2021/04/11 13:57:23;;;;;;;5.00;4.60;;;;;;;;;;5107605;28;20309;-75
2021/04/11 13:59:56;;;;;;;4.72;4.32;;;;;;;;;;5098409;28;20183;-73
2021/04/11 14:02:30;;;;;;;6.70;3.40;;;;;;;;;;5097874;28;20183;-74
2021/04/11 14:05:01;;;;;;;5.07;3.40;;;;;;;;;;5109754;28;20212;-74
2021/04/11 14:07:33;;;;;;;3.42;3.15;;;;;;;;;;5095164;28;20282;-73
2021/04/11 14:10:17;;;;;;;3.90;3.38;;;;;;;;;;5089873;28;20175;-75
2021/04/11 14:12:47;;;;;;;3.90;3.60;;;;;;;;;;5095817;28;20187;-75
2021/04/11 14:15:23;;;;;;;5.60;3.85;;;;;;;;;;5087332;28;20302;-75
2021/04/11 14:18:12;;;;;;;4.50;4.10;;;;;;;;;;5098773;28;20538;-73
2021/04/11 14:20:43;;;;;;;3.50;3.20;;;;;;;;;;5110012;28;20314;-74
2021/04/11 14:23:30;;;;;;;3.95;3.65;;;;;;;;;;5090412;28;20187;-76
2021/04/11 14:26:17;;;;;;;3.70;3.40;;;;;;;;;;5078753;28;20210;-74
2021/04/11 14:29:06;;;;;;;3.72;3.42;;;;;;;;;;5088026;28;20180;-74
2021/04/11 14:31:49;;;;;;;4.95;3.42;;;;;;;;;;5087884;28;20183;-75
2021/04/11 14:34:33;;;;;;;5.85;4.10;;;;;;;;;;5109517;28;20647;-74
2021/04/11 14:37:02;;;;;;;4.93;2.67;;;;;;;;;;5102429;28;21007;-75
2021/04/11 14:39:35;;;;;;;3.00;2.50;;;;;;;;;;5089531;28;20536;-73
2021/04/11 14:42:10;;;;;;;3.58;2.90;;;;;;;;;;5096982;28;20230;-74
2021/04/11 14:44:38;;;;;;;3.60;2.92;;;;;;;;;;5109613;28;20188;-73
2021/04/11 14:47:06;;;;;;;2.90;2.60;;;;;;;;;;5092038;28;20203;-75
2021/04/11 14:49:33;;;;;;;4.25;3.20;;;;;;;;;;5089402;28;20185;-74
2021/04/11 14:51:58;;;;;;;3.38;3.03;;;;;;;;;;5098625;28;20265;-74
2021/04/11 14:54:45;;;;;;;4.27;2.93;;;;;;;;;;5109303;28;20673;-74
2021/04/11 14:57:23;;;;;;;3.60;3.25;;;;;;;;;;5092388;28;20518;-75
2021/04/11 14:59:58;;;;;;;2.80;2.45;;;;;;;;;;5095723;28;20167;-74